sensor_id;sensor_type;location;lat;lon;timestamp;temperature;humidity
49549;DHT22;35450;44.518;7.466;2023-06-10T00:01:56;19.80;99.90
49549;DHT22;35450;44.518;7.466;2023-06-10T00:05:03;19.80;99.90
49549;DHT22;35450;44.518;7.466;2023-06-10T00:08:08;19.80;99.90
49549;DHT22;35450;44.518;7.466;2023-06-10T00:11:12;19.80;99.90
49549;DHT22;35450;44.518;7.466;2023-06-10T00:14:16;19.80;99.90
49549;DHT22;35450;44.518;7.466;2023-06-10T00:17:19;19.80;99.90
49549;DHT22;35450;44.518;7.466;2023-06-10T00:20:23;19.80;99.90
49549;DHT22;35450;44.518;7.466;2023-06-10T00:23:28;19.80;99.90
49549;DHT22;35450;44.518;7.466;2023-06-10T00:26:34;19.70;99.90
49549;DHT22;35450;44.518;7.466;2023-06-10T00:29:38;19.70;99.90
49549;DHT22;35450;44.518;7.466;2023-06-10T00:32:42;19.70;99.90
49549;DHT22;35450;44.518;7.466;2023-06-10T00:35:47;19.70;99.90
49549;DHT22;35450;44.518;7.466;2023-06-10T00:38:51;19.70;99.90
49549;DHT22;35450;44.518;7.466;2023-06-10T00:41:55;19.70;99.90
49549;DHT22;35450;44.518;7.466;2023-06-10T00:44:59;19.70;99.90
49549;DHT22;35450;44.518;7.466;2023-06-10T00:48:03;19.70;99.90
49549;DHT22;35450;44.518;7.466;2023-06-10T00:51:08;19.70;99.90
49549;DHT22;35450;44.518;7.466;2023-06-10T00:54:16;19.60;99.90
49549;DHT22;35450;44.518;7.466;2023-06-10T00:57:20;19.40;99.90
49549;DHT22;35450;44.518;7.466;2023-06-10T01:00:26;19.40;99.90
49549;DHT22;35450;44.518;7.466;2023-06-10T01:03:30;19.40;99.90
49549;DHT22;35450;44.518;7.466;2023-06-10T01:06:47;19.40;99.90
49549;DHT22;35450;44.518;7.466;2023-06-10T01:13:20;19.40;99.90
49549;DHT22;35450;44.518;7.466;2023-06-10T01:16:28;19.40;99.90
49549;DHT22;35450;44.518;7.466;2023-06-10T01:19:33;19.40;99.90
49549;DHT22;35450;44.518;7.466;2023-06-10T01:22:37;19.40;99.90
49549;DHT22;35450;44.518;7.466;2023-06-10T01:26:09;19.30;99.90
49549;DHT22;35450;44.518;7.466;2023-06-10T01:29:34;19.30;99.90
49549;DHT22;35450;44.518;7.466;2023-06-10T01:32:45;19.20;99.90
49549;DHT22;35450;44.518;7.466;2023-06-10T01:35:53;19.00;99.90
49549;DHT22;35450;44.518;7.466;2023-06-10T01:38:59;19.00;99.90
49549;DHT22;35450;44.518;7.466;2023-06-10T01:42:05;19.00;99.90
49549;DHT22;35450;44.518;7.466;2023-06-10T01:45:10;18.90;99.90
49549;DHT22;35450;44.518;7.466;2023-06-10T01:48:14;18.90;99.90
49549;DHT22;35450;44.518;7.466;2023-06-10T01:51:18;18.90;99.90
49549;DHT22;35450;44.518;7.466;2023-06-10T01:54:22;18.90;99.90
49549;DHT22;35450;44.518;7.466;2023-06-10T01:57:25;18.90;99.90
49549;DHT22;35450;44.518;7.466;2023-06-10T02:00:30;19.00;99.90
49549;DHT22;35450;44.518;7.466;2023-06-10T02:03:34;18.90;99.90
49549;DHT22;35450;44.518;7.466;2023-06-10T02:06:40;18.80;99.90
49549;DHT22;35450;44.518;7.466;2023-06-10T02:09:44;18.80;99.90
49549;DHT22;35450;44.518;7.466;2023-06-10T02:12:48;18.80;99.90
49549;DHT22;35450;44.518;7.466;2023-06-10T02:15:52;18.90;99.90
49549;DHT22;35450;44.518;7.466;2023-06-10T02:18:58;18.90;99.90
49549;DHT22;35450;44.518;7.466;2023-06-10T02:22:02;18.80;99.90
49549;DHT22;35450;44.518;7.466;2023-06-10T02:25:07;18.90;99.90
49549;DHT22;35450;44.518;7.466;2023-06-10T02:28:11;18.90;99.90
49549;DHT22;35450;44.518;7.466;2023-06-10T02:31:15;18.90;99.90
49549;DHT22;35450;44.518;7.466;2023-06-10T02:34:21;18.90;99.90
49549;DHT22;35450;44.518;7.466;2023-06-10T02:37:26;18.90;99.90
49549;DHT22;35450;44.518;7.466;2023-06-10T02:40:31;18.70;99.90
49549;DHT22;35450;44.518;7.466;2023-06-10T02:43:35;18.80;99.90
49549;DHT22;35450;44.518;7.466;2023-06-10T02:46:40;18.70;99.90
49549;DHT22;35450;44.518;7.466;2023-06-10T02:49:43;18.60;99.90
49549;DHT22;35450;44.518;7.466;2023-06-10T02:52:48;18.70;99.90
49549;DHT22;35450;44.518;7.466;2023-06-10T02:55:53;18.60;99.90
49549;DHT22;35450;44.518;7.466;2023-06-10T02:58:58;18.70;99.90
49549;DHT22;35450;44.518;7.466;2023-06-10T03:02:04;18.70;99.90
49549;DHT22;35450;44.518;7.466;2023-06-10T03:05:14;18.60;99.90
49549;DHT22;35450;44.518;7.466;2023-06-10T03:08:24;18.60;99.90
49549;DHT22;35450;44.518;7.466;2023-06-10T03:11:29;18.50;99.90
49549;DHT22;35450;44.518;7.466;2023-06-10T03:14:34;18.60;99.90
49549;DHT22;35450;44.518;7.466;2023-06-10T03:17:39;18.60;99.90
49549;DHT22;35450;44.518;7.466;2023-06-10T03:20:44;18.60;99.90
49549;DHT22;35450;44.518;7.466;2023-06-10T03:23:48;18.60;99.90
49549;DHT22;35450;44.518;7.466;2023-06-10T03:26:53;18.60;99.90
49549;DHT22;35450;44.518;7.466;2023-06-10T03:29:59;18.60;99.90
49549;DHT22;35450;44.518;7.466;2023-06-10T03:33:04;18.60;99.90
49549;DHT22;35450;44.518;7.466;2023-06-10T03:36:09;18.60;99.90
49549;DHT22;35450;44.518;7.466;2023-06-10T03:39:14;18.60;99.90
49549;DHT22;35450;44.518;7.466;2023-06-10T03:42:19;18.60;99.90
49549;DHT22;35450;44.518;7.466;2023-06-10T03:45:23;18.60;99.90
49549;DHT22;35450;44.518;7.466;2023-06-10T03:48:28;18.60;99.90
49549;DHT22;35450;44.518;7.466;2023-06-10T03:51:33;18.70;99.90
49549;DHT22;35450;44.518;7.466;2023-06-10T03:54:37;18.50;99.90
49549;DHT22;35450;44.518;7.466;2023-06-10T03:57:41;18.50;99.90
49549;DHT22;35450;44.518;7.466;2023-06-10T04:00:45;18.60;99.90
49549;DHT22;35450;44.518;7.466;2023-06-10T04:03:49;18.50;99.90
49549;DHT22;35450;44.518;7.466;2023-06-10T04:06:55;18.60;99.90
49549;DHT22;35450;44.518;7.466;2023-06-10T04:10:00;18.50;99.90
49549;DHT22;35450;44.518;7.466;2023-06-10T04:13:04;18.60;99.90
49549;DHT22;35450;44.518;7.466;2023-06-10T04:16:15;18.60;99.90
49549;DHT22;35450;44.518;7.466;2023-06-10T04:19:19;18.60;99.90
49549;DHT22;35450;44.518;7.466;2023-06-10T04:22:25;18.60;99.90
49549;DHT22;35450;44.518;7.466;2023-06-10T04:25:30;18.60;99.90
49549;DHT22;35450;44.518;7.466;2023-06-10T04:28:34;18.60;99.90
49549;DHT22;35450;44.518;7.466;2023-06-10T04:31:40;18.60;99.90
49549;DHT22;35450;44.518;7.466;2023-06-10T04:34:45;18.60;99.90
49549;DHT22;35450;44.518;7.466;2023-06-10T04:37:49;18.60;99.90
49549;DHT22;35450;44.518;7.466;2023-06-10T04:40:54;18.60;99.90
49549;DHT22;35450;44.518;7.466;2023-06-10T04:44:00;18.60;99.90
49549;DHT22;35450;44.518;7.466;2023-06-10T04:47:04;18.60;99.90
49549;DHT22;35450;44.518;7.466;2023-06-10T04:50:08;18.70;99.90
49549;DHT22;35450;44.518;7.466;2023-06-10T04:53:12;18.80;99.90
49549;DHT22;35450;44.518;7.466;2023-06-10T04:56:20;18.80;99.90
49549;DHT22;35450;44.518;7.466;2023-06-10T04:59:23;18.80;99.90
49549;DHT22;35450;44.518;7.466;2023-06-10T05:02:27;18.80;99.90
49549;DHT22;35450;44.518;7.466;2023-06-10T05:05:31;18.80;99.90
49549;DHT22;35450;44.518;7.466;2023-06-10T05:08:36;18.90;99.90
49549;DHT22;35450;44.518;7.466;2023-06-10T05:11:40;18.80;99.90
49549;DHT22;35450;44.518;7.466;2023-06-10T05:14:43;18.90;99.90
49549;DHT22;35450;44.518;7.466;2023-06-10T05:17:48;18.80;99.90
49549;DHT22;35450;44.518;7.466;2023-06-10T05:20:52;18.90;99.90
49549;DHT22;35450;44.518;7.466;2023-06-10T05:23:58;18.90;99.90
49549;DHT22;35450;44.518;7.466;2023-06-10T05:27:03;18.90;99.90
49549;DHT22;35450;44.518;7.466;2023-06-10T05:30:08;19.00;99.90
49549;DHT22;35450;44.518;7.466;2023-06-10T05:33:12;19.00;99.90
49549;DHT22;35450;44.518;7.466;2023-06-10T05:36:16;19.10;99.90
49549;DHT22;35450;44.518;7.466;2023-06-10T05:39:20;19.10;99.90
49549;DHT22;35450;44.518;7.466;2023-06-10T05:42:24;19.10;99.90
49549;DHT22;35450;44.518;7.466;2023-06-10T05:45:27;19.10;99.90
49549;DHT22;35450;44.518;7.466;2023-06-10T05:48:32;19.20;99.90
49549;DHT22;35450;44.518;7.466;2023-06-10T05:51:36;19.20;99.90
49549;DHT22;35450;44.518;7.466;2023-06-10T05:54:40;19.20;99.90
49549;DHT22;35450;44.518;7.466;2023-06-10T05:57:44;19.30;99.90
49549;DHT22;35450;44.518;7.466;2023-06-10T06:00:48;19.40;99.90
49549;DHT22;35450;44.518;7.466;2023-06-10T06:03:52;19.40;99.90
49549;DHT22;35450;44.518;7.466;2023-06-10T06:06:56;19.50;99.90
49549;DHT22;35450;44.518;7.466;2023-06-10T06:10:00;19.60;99.90
49549;DHT22;35450;44.518;7.466;2023-06-10T06:13:03;19.60;99.90
49549;DHT22;35450;44.518;7.466;2023-06-10T06:16:07;19.60;99.90
49549;DHT22;35450;44.518;7.466;2023-06-10T06:19:12;19.60;99.90
49549;DHT22;35450;44.518;7.466;2023-06-10T06:22:16;19.70;99.90
49549;DHT22;35450;44.518;7.466;2023-06-10T06:25:24;19.70;99.90
49549;DHT22;35450;44.518;7.466;2023-06-10T06:28:28;19.70;99.90
49549;DHT22;35450;44.518;7.466;2023-06-10T06:31:33;19.70;99.90
49549;DHT22;35450;44.518;7.466;2023-06-10T06:34:37;19.60;99.90
49549;DHT22;35450;44.518;7.466;2023-06-10T06:37:41;19.70;99.90
49549;DHT22;35450;44.518;7.466;2023-06-10T06:40:55;19.80;99.90
49549;DHT22;35450;44.518;7.466;2023-06-10T06:43:59;19.90;99.90
49549;DHT22;35450;44.518;7.466;2023-06-10T06:47:08;19.90;99.90
49549;DHT22;35450;44.518;7.466;2023-06-10T06:50:12;19.90;99.90
49549;DHT22;35450;44.518;7.466;2023-06-10T06:53:16;20.00;99.90
49549;DHT22;35450;44.518;7.466;2023-06-10T06:56:19;20.00;99.90
49549;DHT22;35450;44.518;7.466;2023-06-10T06:59:24;20.00;99.90
49549;DHT22;35450;44.518;7.466;2023-06-10T07:02:29;20.00;99.90
49549;DHT22;35450;44.518;7.466;2023-06-10T07:05:33;20.00;99.90
49549;DHT22;35450;44.518;7.466;2023-06-10T07:08:37;20.10;99.90
49549;DHT22;35450;44.518;7.466;2023-06-10T07:11:41;20.10;99.90
49549;DHT22;35450;44.518;7.466;2023-06-10T07:14:44;20.10;99.90
49549;DHT22;35450;44.518;7.466;2023-06-10T07:17:48;20.20;99.90
49549;DHT22;35450;44.518;7.466;2023-06-10T07:20:52;20.20;99.90
49549;DHT22;35450;44.518;7.466;2023-06-10T07:23:56;20.20;99.90
49549;DHT22;35450;44.518;7.466;2023-06-10T07:27:00;20.20;99.90
49549;DHT22;35450;44.518;7.466;2023-06-10T07:30:05;20.30;99.90
49549;DHT22;35450;44.518;7.466;2023-06-10T07:33:12;20.30;99.90
49549;DHT22;35450;44.518;7.466;2023-06-10T07:36:16;20.30;99.90
49549;DHT22;35450;44.518;7.466;2023-06-10T07:39:19;20.30;99.90
49549;DHT22;35450;44.518;7.466;2023-06-10T07:42:23;20.40;99.90
49549;DHT22;35450;44.518;7.466;2023-06-10T07:45:27;20.50;99.90
49549;DHT22;35450;44.518;7.466;2023-06-10T07:48:31;20.50;99.90
49549;DHT22;35450;44.518;7.466;2023-06-10T07:51:35;20.60;99.90
49549;DHT22;35450;44.518;7.466;2023-06-10T07:54:40;20.70;99.90
49549;DHT22;35450;44.518;7.466;2023-06-10T07:57:44;20.70;99.90
49549;DHT22;35450;44.518;7.466;2023-06-10T08:00:48;20.80;99.90
49549;DHT22;35450;44.518;7.466;2023-06-10T08:03:52;20.90;99.90
49549;DHT22;35450;44.518;7.466;2023-06-10T08:06:56;20.80;99.90
49549;DHT22;35450;44.518;7.466;2023-06-10T08:10:01;20.80;99.90
49549;DHT22;35450;44.518;7.466;2023-06-10T08:13:05;20.90;99.90
49549;DHT22;35450;44.518;7.466;2023-06-10T08:16:09;20.90;99.90
49549;DHT22;35450;44.518;7.466;2023-06-10T08:19:13;20.90;99.90
49549;DHT22;35450;44.518;7.466;2023-06-10T08:22:17;20.90;99.90
49549;DHT22;35450;44.518;7.466;2023-06-10T08:25:22;20.80;99.90
49549;DHT22;35450;44.518;7.466;2023-06-10T08:28:26;20.90;99.90
49549;DHT22;35450;44.518;7.466;2023-06-10T08:31:30;21.00;99.90
49549;DHT22;35450;44.518;7.466;2023-06-10T08:34:34;21.10;99.90
49549;DHT22;35450;44.518;7.466;2023-06-10T08:37:41;21.20;99.90
49549;DHT22;35450;44.518;7.466;2023-06-10T08:40:45;21.30;99.90
49549;DHT22;35450;44.518;7.466;2023-06-10T08:44:07;21.30;99.90
49549;DHT22;35450;44.518;7.466;2023-06-10T08:47:16;21.30;99.90
49549;DHT22;35450;44.518;7.466;2023-06-10T08:50:21;21.30;99.90
49549;DHT22;35450;44.518;7.466;2023-06-10T08:53:26;21.20;99.90
49549;DHT22;35450;44.518;7.466;2023-06-10T08:56:35;21.30;99.90
49549;DHT22;35450;44.518;7.466;2023-06-10T08:59:43;21.40;99.90
49549;DHT22;35450;44.518;7.466;2023-06-10T09:02:47;21.40;99.90
49549;DHT22;35450;44.518;7.466;2023-06-10T09:05:51;21.50;99.90
49549;DHT22;35450;44.518;7.466;2023-06-10T09:08:55;21.50;99.90
49549;DHT22;35450;44.518;7.466;2023-06-10T09:11:59;21.60;99.90
49549;DHT22;35450;44.518;7.466;2023-06-10T09:15:03;21.60;99.90
49549;DHT22;35450;44.518;7.466;2023-06-10T09:18:08;21.70;99.90
49549;DHT22;35450;44.518;7.466;2023-06-10T09:21:13;21.50;99.90
49549;DHT22;35450;44.518;7.466;2023-06-10T09:24:17;21.60;99.90
49549;DHT22;35450;44.518;7.466;2023-06-10T09:27:22;21.60;99.90
49549;DHT22;35450;44.518;7.466;2023-06-10T09:30:28;21.60;99.90
49549;DHT22;35450;44.518;7.466;2023-06-10T09:33:32;21.60;99.90
49549;DHT22;35450;44.518;7.466;2023-06-10T09:36:38;21.50;99.90
49549;DHT22;35450;44.518;7.466;2023-06-10T09:39:42;21.40;99.90
49549;DHT22;35450;44.518;7.466;2023-06-10T09:42:46;21.50;99.90
49549;DHT22;35450;44.518;7.466;2023-06-10T09:45:57;21.40;99.90
49549;DHT22;35450;44.518;7.466;2023-06-10T09:49:01;21.50;99.90
49549;DHT22;35450;44.518;7.466;2023-06-10T09:52:05;21.60;99.90
49549;DHT22;35450;44.518;7.466;2023-06-10T09:55:09;21.70;99.90
49549;DHT22;35450;44.518;7.466;2023-06-10T09:58:15;21.70;99.90
49549;DHT22;35450;44.518;7.466;2023-06-10T10:01:18;21.80;99.90
49549;DHT22;35450;44.518;7.466;2023-06-10T10:04:24;21.80;99.90
49549;DHT22;35450;44.518;7.466;2023-06-10T10:07:29;22.00;99.90
49549;DHT22;35450;44.518;7.466;2023-06-10T10:10:33;22.00;99.90
49549;DHT22;35450;44.518;7.466;2023-06-10T10:13:37;22.10;99.80
49549;DHT22;35450;44.518;7.466;2023-06-10T10:16:42;22.20;99.80
49549;DHT22;35450;44.518;7.466;2023-06-10T10:19:49;22.20;99.90
49549;DHT22;35450;44.518;7.466;2023-06-10T10:22:57;22.20;99.90
49549;DHT22;35450;44.518;7.466;2023-06-10T10:26:04;22.40;99.90
49549;DHT22;35450;44.518;7.466;2023-06-10T10:29:24;22.50;99.90
49549;DHT22;35450;44.518;7.466;2023-06-10T10:32:33;22.40;99.90
49549;DHT22;35450;44.518;7.466;2023-06-10T10:35:39;22.50;99.90
49549;DHT22;35450;44.518;7.466;2023-06-10T10:38:45;22.50;99.40
49549;DHT22;35450;44.518;7.466;2023-06-10T10:41:51;22.40;98.50
49549;DHT22;35450;44.518;7.466;2023-06-10T10:44:56;22.30;99.80
49549;DHT22;35450;44.518;7.466;2023-06-10T10:48:07;22.40;99.90
49549;DHT22;35450;44.518;7.466;2023-06-10T10:51:15;22.40;99.70
49549;DHT22;35450;44.518;7.466;2023-06-10T10:54:28;22.60;99.80
49549;DHT22;35450;44.518;7.466;2023-06-10T10:57:38;22.70;99.30
49549;DHT22;35450;44.518;7.466;2023-06-10T11:00:44;22.80;98.80
49549;DHT22;35450;44.518;7.466;2023-06-10T11:03:49;22.80;98.30
49549;DHT22;35450;44.518;7.466;2023-06-10T11:06:53;22.90;98.60
49549;DHT22;35450;44.518;7.466;2023-06-10T11:13:13;22.90;98.90
49549;DHT22;35450;44.518;7.466;2023-06-10T11:16:19;22.80;99.20
49549;DHT22;35450;44.518;7.466;2023-06-10T11:19:37;22.80;99.10
49549;DHT22;35450;44.518;7.466;2023-06-10T11:23:01;22.80;98.40
49549;DHT22;35450;44.518;7.466;2023-06-10T11:29:25;22.90;99.10
49549;DHT22;35450;44.518;7.466;2023-06-10T11:32:31;22.90;98.50
49549;DHT22;35450;44.518;7.466;2023-06-10T11:35:35;22.80;97.70
49549;DHT22;35450;44.518;7.466;2023-06-10T11:38:40;22.90;98.10
49549;DHT22;35450;44.518;7.466;2023-06-10T11:41:45;22.90;97.30
49549;DHT22;35450;44.518;7.466;2023-06-10T11:44:53;23.00;97.90
49549;DHT22;35450;44.518;7.466;2023-06-10T11:47:58;23.00;97.80
49549;DHT22;35450;44.518;7.466;2023-06-10T11:51:07;23.00;98.00
49549;DHT22;35450;44.518;7.466;2023-06-10T11:54:11;23.10;98.30
49549;DHT22;35450;44.518;7.466;2023-06-10T11:57:15;23.20;98.70
49549;DHT22;35450;44.518;7.466;2023-06-10T12:00:20;23.20;98.10
49549;DHT22;35450;44.518;7.466;2023-06-10T12:03:24;23.30;98.00
49549;DHT22;35450;44.518;7.466;2023-06-10T12:06:47;23.40;97.60
49549;DHT22;35450;44.518;7.466;2023-06-10T12:10:01;23.40;97.60
49549;DHT22;35450;44.518;7.466;2023-06-10T12:13:05;23.40;98.50
49549;DHT22;35450;44.518;7.466;2023-06-10T12:16:09;23.30;99.00
49549;DHT22;35450;44.518;7.466;2023-06-10T12:19:13;23.30;98.40
49549;DHT22;35450;44.518;7.466;2023-06-10T12:22:17;23.40;98.40
49549;DHT22;35450;44.518;7.466;2023-06-10T12:25:27;23.40;99.00
49549;DHT22;35450;44.518;7.466;2023-06-10T12:28:31;23.40;99.50
49549;DHT22;35450;44.518;7.466;2023-06-10T12:31:55;23.50;99.70
49549;DHT22;35450;44.518;7.466;2023-06-10T12:35:03;23.50;99.90
49549;DHT22;35450;44.518;7.466;2023-06-10T12:38:10;23.60;99.60
49549;DHT22;35450;44.518;7.466;2023-06-10T12:41:16;23.60;99.40
49549;DHT22;35450;44.518;7.466;2023-06-10T12:45:02;23.60;99.60
49549;DHT22;35450;44.518;7.466;2023-06-10T12:51:12;23.60;99.70
49549;DHT22;35450;44.518;7.466;2023-06-10T12:54:16;23.70;99.60
49549;DHT22;35450;44.518;7.466;2023-06-10T12:57:24;23.70;99.90
49549;DHT22;35450;44.518;7.466;2023-06-10T13:00:28;23.50;99.90
49549;DHT22;35450;44.518;7.466;2023-06-10T13:03:34;23.50;99.70
49549;DHT22;35450;44.518;7.466;2023-06-10T13:06:38;23.50;99.90
49549;DHT22;35450;44.518;7.466;2023-06-10T13:09:44;23.60;99.80
49549;DHT22;35450;44.518;7.466;2023-06-10T13:12:48;23.50;99.90
49549;DHT22;35450;44.518;7.466;2023-06-10T13:15:52;23.60;99.80
49549;DHT22;35450;44.518;7.466;2023-06-10T13:18:57;23.60;99.40
49549;DHT22;35450;44.518;7.466;2023-06-10T13:22:01;23.60;99.40
49549;DHT22;35450;44.518;7.466;2023-06-10T13:25:05;23.60;99.20
49549;DHT22;35450;44.518;7.466;2023-06-10T13:28:12;23.60;99.20
49549;DHT22;35450;44.518;7.466;2023-06-10T13:31:16;23.60;98.80
49549;DHT22;35450;44.518;7.466;2023-06-10T13:34:21;23.60;98.60
49549;DHT22;35450;44.518;7.466;2023-06-10T13:37:25;23.60;98.50
49549;DHT22;35450;44.518;7.466;2023-06-10T13:40:29;23.70;98.00
49549;DHT22;35450;44.518;7.466;2023-06-10T13:43:33;23.70;97.50
49549;DHT22;35450;44.518;7.466;2023-06-10T13:46:37;23.70;97.70
49549;DHT22;35450;44.518;7.466;2023-06-10T13:49:41;23.70;97.40
49549;DHT22;35450;44.518;7.466;2023-06-10T13:52:45;23.60;97.40
49549;DHT22;35450;44.518;7.466;2023-06-10T13:55:49;23.70;97.60
49549;DHT22;35450;44.518;7.466;2023-06-10T13:58:53;23.50;97.90
49549;DHT22;35450;44.518;7.466;2023-06-10T14:01:57;23.40;97.90
49549;DHT22;35450;44.518;7.466;2023-06-10T14:05:03;23.40;97.50
49549;DHT22;35450;44.518;7.466;2023-06-10T14:08:07;23.40;97.40
49549;DHT22;35450;44.518;7.466;2023-06-10T14:11:11;23.20;98.00
49549;DHT22;35450;44.518;7.466;2023-06-10T14:14:15;23.20;98.10
49549;DHT22;35450;44.518;7.466;2023-06-10T14:17:19;23.20;97.70
49549;DHT22;35450;44.518;7.466;2023-06-10T14:20:23;23.20;97.90
49549;DHT22;35450;44.518;7.466;2023-06-10T14:23:29;23.20;97.50
49549;DHT22;35450;44.518;7.466;2023-06-10T14:26:33;23.30;97.40
49549;DHT22;35450;44.518;7.466;2023-06-10T14:29:37;23.40;97.10
49549;DHT22;35450;44.518;7.466;2023-06-10T14:32:42;23.30;96.80
49549;DHT22;35450;44.518;7.466;2023-06-10T14:35:46;23.40;96.40
49549;DHT22;35450;44.518;7.466;2023-06-10T14:38:51;23.30;96.20
49549;DHT22;35450;44.518;7.466;2023-06-10T14:41:55;23.40;96.50
49549;DHT22;35450;44.518;7.466;2023-06-10T14:44:59;23.50;96.80
49549;DHT22;35450;44.518;7.466;2023-06-10T14:48:03;23.60;96.30
49549;DHT22;35450;44.518;7.466;2023-06-10T14:51:08;23.70;96.00
49549;DHT22;35450;44.518;7.466;2023-06-10T14:54:12;23.70;96.20
49549;DHT22;35450;44.518;7.466;2023-06-10T14:57:16;23.70;96.10
49549;DHT22;35450;44.518;7.466;2023-06-10T15:00:20;23.90;96.50
49549;DHT22;35450;44.518;7.466;2023-06-10T15:03:27;24.00;96.20
49549;DHT22;35450;44.518;7.466;2023-06-10T15:06:31;24.00;96.10
49549;DHT22;35450;44.518;7.466;2023-06-10T15:09:35;24.00;96.20
49549;DHT22;35450;44.518;7.466;2023-06-10T15:12:38;24.10;95.90
49549;DHT22;35450;44.518;7.466;2023-06-10T15:15:42;24.20;95.70
49549;DHT22;35450;44.518;7.466;2023-06-10T15:18:46;24.20;95.50
49549;DHT22;35450;44.518;7.466;2023-06-10T15:21:50;24.30;95.70
49549;DHT22;35450;44.518;7.466;2023-06-10T15:24:54;24.40;95.70
49549;DHT22;35450;44.518;7.466;2023-06-10T15:27:59;24.50;95.70
49549;DHT22;35450;44.518;7.466;2023-06-10T15:31:03;24.60;95.70
49549;DHT22;35450;44.518;7.466;2023-06-10T15:34:07;24.80;95.30
49549;DHT22;35450;44.518;7.466;2023-06-10T15:37:12;24.80;95.10
49549;DHT22;35450;44.518;7.466;2023-06-10T15:40:16;24.70;95.00
49549;DHT22;35450;44.518;7.466;2023-06-10T15:43:20;24.80;95.50
49549;DHT22;35450;44.518;7.466;2023-06-10T15:46:24;24.90;95.90
49549;DHT22;35450;44.518;7.466;2023-06-10T15:49:29;24.90;95.70
49549;DHT22;35450;44.518;7.466;2023-06-10T15:52:32;25.00;95.20
49549;DHT22;35450;44.518;7.466;2023-06-10T15:55:36;25.00;95.60
49549;DHT22;35450;44.518;7.466;2023-06-10T15:58:40;25.10;95.80
49549;DHT22;35450;44.518;7.466;2023-06-10T16:01:44;25.10;95.80
49549;DHT22;35450;44.518;7.466;2023-06-10T16:04:48;25.00;95.60
49549;DHT22;35450;44.518;7.466;2023-06-10T16:07:52;25.20;95.70
49549;DHT22;35450;44.518;7.466;2023-06-10T16:10:56;25.40;95.50
49549;DHT22;35450;44.518;7.466;2023-06-10T16:14:00;25.70;95.40
49549;DHT22;35450;44.518;7.466;2023-06-10T16:17:04;25.80;94.80
49549;DHT22;35450;44.518;7.466;2023-06-10T16:20:09;25.80;95.00
49549;DHT22;35450;44.518;7.466;2023-06-10T16:23:13;25.70;94.60
49549;DHT22;35450;44.518;7.466;2023-06-10T16:26:17;25.50;94.80
49549;DHT22;35450;44.518;7.466;2023-06-10T16:29:21;25.40;95.20
49549;DHT22;35450;44.518;7.466;2023-06-10T16:32:25;25.20;95.10
49549;DHT22;35450;44.518;7.466;2023-06-10T16:35:29;25.10;95.50
49549;DHT22;35450;44.518;7.466;2023-06-10T16:38:33;24.90;95.40
49549;DHT22;35450;44.518;7.466;2023-06-10T16:41:37;24.80;95.50
49549;DHT22;35450;44.518;7.466;2023-06-10T16:44:41;24.70;95.40
49549;DHT22;35450;44.518;7.466;2023-06-10T16:47:45;24.70;95.80
49549;DHT22;35450;44.518;7.466;2023-06-10T16:50:49;24.70;95.80
49549;DHT22;35450;44.518;7.466;2023-06-10T16:53:52;24.90;95.90
49549;DHT22;35450;44.518;7.466;2023-06-10T16:56:56;25.00;95.80
49549;DHT22;35450;44.518;7.466;2023-06-10T17:00:00;25.20;95.80
49549;DHT22;35450;44.518;7.466;2023-06-10T17:03:04;26.10;95.80
49549;DHT22;35450;44.518;7.466;2023-06-10T17:06:08;27.50;93.60
49549;DHT22;35450;44.518;7.466;2023-06-10T17:09:12;28.10;92.30
49549;DHT22;35450;44.518;7.466;2023-06-10T17:12:16;27.80;92.20
49549;DHT22;35450;44.518;7.466;2023-06-10T17:15:20;27.20;92.80
49549;DHT22;35450;44.518;7.466;2023-06-10T17:18:24;26.70;93.60
49549;DHT22;35450;44.518;7.466;2023-06-10T17:21:28;26.50;94.30
49549;DHT22;35450;44.518;7.466;2023-06-10T17:24:32;26.30;94.70
49549;DHT22;35450;44.518;7.466;2023-06-10T17:27:36;26.20;94.80
49549;DHT22;35450;44.518;7.466;2023-06-10T17:30:40;26.20;94.40
49549;DHT22;35450;44.518;7.466;2023-06-10T17:33:44;26.10;94.00
49549;DHT22;35450;44.518;7.466;2023-06-10T17:36:48;26.00;94.30
49549;DHT22;35450;44.518;7.466;2023-06-10T17:39:52;26.00;94.20
49549;DHT22;35450;44.518;7.466;2023-06-10T17:42:55;26.00;93.80
49549;DHT22;35450;44.518;7.466;2023-06-10T17:45:59;25.90;94.00
49549;DHT22;35450;44.518;7.466;2023-06-10T17:49:03;25.80;94.10
49549;DHT22;35450;44.518;7.466;2023-06-10T17:52:07;25.70;94.50
49549;DHT22;35450;44.518;7.466;2023-06-10T17:55:11;25.50;94.80
49549;DHT22;35450;44.518;7.466;2023-06-10T17:58:15;25.40;94.90
49549;DHT22;35450;44.518;7.466;2023-06-10T18:01:19;25.30;95.00
49549;DHT22;35450;44.518;7.466;2023-06-10T18:04:23;25.20;95.10
49549;DHT22;35450;44.518;7.466;2023-06-10T18:07:27;25.10;95.50
49549;DHT22;35450;44.518;7.466;2023-06-10T18:10:31;24.90;95.80
49549;DHT22;35450;44.518;7.466;2023-06-10T18:13:35;24.60;96.50
49549;DHT22;35450;44.518;7.466;2023-06-10T18:16:39;24.30;97.00
49549;DHT22;35450;44.518;7.466;2023-06-10T18:19:43;24.20;97.10
49549;DHT22;35450;44.518;7.466;2023-06-10T18:22:47;24.20;97.60
49549;DHT22;35450;44.518;7.466;2023-06-10T18:25:51;24.00;98.00
49549;DHT22;35450;44.518;7.466;2023-06-10T18:28:55;24.00;97.70
49549;DHT22;35450;44.518;7.466;2023-06-10T18:31:59;23.80;97.90
49549;DHT22;35450;44.518;7.466;2023-06-10T18:35:04;23.70;98.00
49549;DHT22;35450;44.518;7.466;2023-06-10T18:38:08;23.60;98.30
49549;DHT22;35450;44.518;7.466;2023-06-10T18:41:12;23.50;98.40
49549;DHT22;35450;44.518;7.466;2023-06-10T18:44:16;23.30;99.00
49549;DHT22;35450;44.518;7.466;2023-06-10T18:47:20;23.10;99.20
49549;DHT22;35450;44.518;7.466;2023-06-10T18:50:24;23.20;99.00
49549;DHT22;35450;44.518;7.466;2023-06-10T18:53:28;22.90;99.20
49549;DHT22;35450;44.518;7.466;2023-06-10T18:56:32;23.00;99.10
49549;DHT22;35450;44.518;7.466;2023-06-10T18:59:36;22.90;99.10
49549;DHT22;35450;44.518;7.466;2023-06-10T19:02:40;22.90;99.00
49549;DHT22;35450;44.518;7.466;2023-06-10T19:05:44;22.90;99.30
49549;DHT22;35450;44.518;7.466;2023-06-10T19:08:48;22.80;98.90
49549;DHT22;35450;44.518;7.466;2023-06-10T19:11:52;22.70;99.10
49549;DHT22;35450;44.518;7.466;2023-06-10T19:14:56;22.50;99.10
49549;DHT22;35450;44.518;7.466;2023-06-10T19:18:00;22.50;99.20
49549;DHT22;35450;44.518;7.466;2023-06-10T19:21:03;22.40;99.20
49549;DHT22;35450;44.518;7.466;2023-06-10T19:24:08;22.40;99.10
49549;DHT22;35450;44.518;7.466;2023-06-10T19:27:13;22.30;98.80
49549;DHT22;35450;44.518;7.466;2023-06-10T19:30:17;22.30;98.90
49549;DHT22;35450;44.518;7.466;2023-06-10T19:33:21;22.20;98.70
49549;DHT22;35450;44.518;7.466;2023-06-10T19:36:25;22.10;98.80
49549;DHT22;35450;44.518;7.466;2023-06-10T19:39:29;22.00;98.80
49549;DHT22;35450;44.518;7.466;2023-06-10T19:42:33;22.10;98.70